Time;durP1;ratioP1;P1;durP2;ratioP2;P2;SDS_P1;SDS_P2;PMS_P1;PMS_P2;Temp;Humidity;BMP_temperature;BMP_pressure;BME280_temperature;BME280_humidity;BME280_pressure;Samples;Min_cycle;Max_cycle;Signal;HPM_P1;HPM_P2
2022/01/06 00:00:36;;;;;;;4.22;1.50;;;;;;;5.01;54.93;99154.84;4429432;32;34138;-66
2022/01/06 00:03:04;;;;;;;6.35;1.23;;;;;;;4.82;55.39;99156.34;4440010;32;33461;-64
2022/01/06 00:05:33;;;;;;;4.30;1.33;;;;;;;4.79;55.36;99158.75;4442285;32;33286;-66
2022/01/06 00:08:01;;;;;;;6.05;1.50;;;;;;;4.48;57.03;99159.56;4441369;32;33389;-65
2022/01/06 00:10:31;;;;;;;2.83;0.95;;;;;;;4.48;56.84;99157.00;4442771;32;33518;-66
2022/01/06 00:15:36;;;;;;;3.08;0.90;;;;;;;4.24;57.10;99170.94;4442950;32;33831;-66
2022/01/06 00:25:52;;;;;;;3.03;1.10;;;;;;;3.96;58.12;99148.78;4442702;32;32097;-65
2022/01/06 00:28:20;;;;;;;3.67;1.23;;;;;;;3.88;58.33;99147.41;4441270;32;33699;-66
2022/01/06 00:30:48;;;;;;;2.90;1.23;;;;;;;3.78;59.04;99145.09;4435057;32;33776;-66
2022/01/06 00:33:16;;;;;;;3.95;1.30;;;;;;;3.67;58.51;99145.34;4435962;32;33484;-67
2022/01/06 00:35:44;;;;;;;3.83;1.48;;;;;;;3.63;59.45;99156.19;4436534;32;33535;-66
2022/01/06 00:38:12;;;;;;;5.03;1.15;;;;;;;3.72;59.50;99143.03;4437562;32;34610;-66
2022/01/06 00:40:40;;;;;;;3.37;0.98;;;;;;;3.67;59.77;99141.88;4439549;32;34646;-65
2022/01/06 00:43:09;;;;;;;4.72;1.35;;;;;;;3.67;59.42;99135.09;4442044;32;33630;-66
2022/01/06 00:45:36;;;;;;;4.20;1.10;;;;;;;3.60;60.15;99132.94;4441937;32;33870;-66
2022/01/06 00:48:07;;;;;;;2.95;1.20;;;;;;;3.80;60.05;99121.31;4449485;32;33551;-66
2022/01/06 00:50:36;;;;;;;3.40;1.50;;;;;;;3.79;59.93;99111.00;4435110;32;33905;-66
2022/01/06 00:53:04;;;;;;;5.30;1.77;;;;;;;3.96;59.13;99097.53;4429756;32;34226;-66
2022/01/06 00:55:36;;;;;;;4.60;1.92;;;;;;;3.92;59.61;99090.44;4435351;32;34410;-67
2022/01/06 00:58:04;;;;;;;2.53;0.98;;;;;;;3.90;59.59;99082.69;4439904;32;34510;-65
2022/01/06 01:00:40;;;;;;;6.62;1.33;;;;;;;3.79;59.13;99093.09;4435994;32;34033;-66
2022/01/06 01:03:13;;;;;;;6.03;1.30;;;;;;;3.83;59.81;99095.03;4439261;32;33380;-66
2022/01/06 01:05:43;;;;;;;4.28;1.35;;;;;;;3.99;59.11;99074.62;4435281;32;33854;-66
2022/01/06 01:08:10;;;;;;;2.53;1.30;;;;;;;3.99;58.98;99073.75;4434634;32;33682;-66
2022/01/06 01:10:39;;;;;;;2.70;1.05;;;;;;;3.96;59.44;99066.78;4436998;32;32681;-65
2022/01/06 01:13:10;;;;;;;2.17;1.08;;;;;;;3.84;59.16;99073.72;4440203;32;33305;-66
2022/01/06 01:15:50;;;;;;;2.50;0.88;;;;;;;3.92;59.29;99078.53;4426330;32;32949;-66
2022/01/06 01:18:19;;;;;;;3.35;1.17;;;;;;;3.93;59.39;99081.97;4435217;32;32479;-67
2022/01/06 01:20:48;;;;;;;5.97;1.48;;;;;;;3.73;59.98;99098.72;4434317;32;33587;-67
2022/01/06 01:23:17;;;;;;;2.17;1.23;;;;;;;3.77;60.14;99104.88;4436846;32;33000;-66
2022/01/06 01:25:44;;;;;;;4.90;1.10;;;;;;;3.84;59.12;99081.41;4432938;32;33887;-66
2022/01/06 01:28:14;;;;;;;3.40;1.20;;;;;;;3.77;59.79;99085.31;4441354;32;33834;-66
2022/01/06 01:31:46;;;;;;;2.30;1.23;;;;;;;3.65;60.68;99100.81;4436516;32;34711;-66
2022/01/06 01:33:40;;;;;;;3.35;1.33;;;;;;;3.59;60.71;99120.03;4420838;32;31873;-66
2022/01/06 01:36:07;;;;;;;2.65;1.00;;;;;;;3.81;60.27;99119.69;4438753;32;33877;-66
2022/01/06 01:38:36;;;;;;;4.25;1.02;;;;;;;3.74;60.35;99126.97;4437509;32;33851;-66
2022/01/06 01:41:06;;;;;;;3.25;1.23;;;;;;;3.71;60.71;99126.78;4433652;32;34540;-66
2022/01/06 01:43:34;;;;;;;3.20;1.00;;;;;;;3.66;61.21;99128.19;4441397;32;33530;-66
2022/01/06 01:46:10;;;;;;;3.95;1.40;;;;;;;3.89;60.29;99121.00;4438507;32;33878;-66
2022/01/06 01:48:39;;;;;;;2.85;1.20;;;;;;;3.82;60.92;99106.94;4432977;32;34682;-65
2022/01/06 01:51:10;;;;;;;8.23;1.15;;;;;;;3.82;60.59;99093.25;4434943;32;33766;-66
2022/01/06 01:53:38;;;;;;;4.90;1.33;;;;;;;3.59;61.15;99086.75;4427087;32;33910;-66
2022/01/06 01:56:07;;;;;;;5.78;1.33;;;;;;;3.61;61.17;99078.37;4422150;32;34153;-66
2022/01/06 01:58:36;;;;;;;3.37;1.37;;;;;;;3.75;61.01;99092.00;4432374;32;33479;-66
2022/01/06 02:01:04;;;;;;;4.68;1.05;;;;;;;3.66;61.26;99097.44;4435350;32;33611;-66
2022/01/06 02:03:32;;;;;;;2.87;1.35;;;;;;;3.63;61.39;99091.25;4438729;32;33150;-65
2022/01/06 02:06:00;;;;;;;3.05;1.00;;;;;;;3.63;61.31;99102.41;4441263;32;34469;-66
2022/01/06 02:08:29;;;;;;;3.65;1.48;;;;;;;3.78;61.43;99106.66;4435203;32;34520;-66
2022/01/06 02:10:57;;;;;;;4.43;1.17;;;;;;;3.75;61.12;99120.19;4434322;32;33818;-65
2022/01/06 02:13:28;;;;;;;3.50;1.37;;;;;;;3.73;61.29;99125.22;4434101;32;33204;-66
2022/01/06 02:16:01;;;;;;;2.75;1.10;;;;;;;3.82;61.36;99129.12;4435233;32;33785;-65
2022/01/06 02:18:29;;;;;;;4.18;1.60;;;;;;;3.84;60.94;99133.53;4433750;32;34522;-65
2022/01/06 02:20:56;;;;;;;3.15;1.42;;;;;;;3.95;60.75;99136.75;4440762;32;34755;-66
2022/01/06 02:23:24;;;;;;;3.85;1.15;;;;;;;3.90;60.66;99127.88;4434964;32;33299;-66
2022/01/06 02:25:52;;;;;;;3.03;1.00;;;;;;;3.80;60.97;99125.56;4435247;32;34931;-66
2022/01/06 02:28:22;;;;;;;3.12;1.05;;;;;;;3.74;61.46;99110.72;4437060;32;33802;-66
2022/01/06 02:30:51;;;;;;;2.47;0.80;;;;;;;3.74;61.51;99092.78;4440760;32;33003;-67
2022/01/06 02:33:19;;;;;;;3.92;1.15;;;;;;;3.66;61.40;99082.06;4436746;32;34184;-66
2022/01/06 02:35:48;;;;;;;4.05;1.45;;;;;;;3.85;61.01;99072.94;4440678;32;33922;-67
2022/01/06 02:38:16;;;;;;;5.18;1.23;;;;;;;3.82;60.83;99059.94;4438051;32;34650;-65
2022/01/06 02:40:45;;;;;;;3.15;1.30;;;;;;;3.71;61.16;99065.31;4437901;32;34555;-66
2022/01/06 02:43:16;;;;;;;3.75;1.10;;;;;;;3.54;61.58;99069.41;4435606;32;33958;-63
2022/01/06 02:45:45;;;;;;;3.92;1.17;;;;;;;3.70;61.59;99073.78;4437076;32;33954;-64
2022/01/06 02:48:14;;;;;;;5.12;1.52;;;;;;;3.68;61.21;99067.69;4434594;32;33556;-64
2022/01/06 02:50:44;;;;;;;5.10;1.10;;;;;;;3.33;62.43;99081.78;4437728;32;33810;-65
2022/01/06 02:53:12;;;;;;;4.40;1.25;;;;;;;3.53;61.82;99084.69;4423389;32;33385;-65
2022/01/06 02:55:49;;;;;;;3.37;1.33;;;;;;;3.80;61.46;99115.31;4436918;32;34457;-64
2022/01/06 02:58:36;;;;;;;5.62;1.05;;;;;;;3.34;62.18;99121.97;4435285;32;33872;-65
2022/01/06 03:01:04;;;;;;;3.50;1.02;;;;;;;3.53;62.46;99125.66;4434758;32;33803;-65
2022/01/06 03:03:32;;;;;;;4.03;1.25;;;;;;;3.45;62.50;99124.31;4434554;32;33287;-65
2022/01/06 03:05:59;;;;;;;4.37;1.52;;;;;;;3.43;62.34;99139.56;4440501;32;33883;-64
2022/01/06 03:08:27;;;;;;;2.22;1.35;;;;;;;3.63;61.97;99158.75;4436832;32;32407;-65
2022/01/06 03:10:56;;;;;;;3.85;1.12;;;;;;;3.71;61.82;99156.66;4431877;32;34603;-64
2022/01/06 03:13:24;;;;;;;4.47;1.40;;;;;;;3.73;61.97;99150.81;4433531;32;33666;-65
2022/01/06 03:15:52;;;;;;;3.55;1.58;;;;;;;3.99;61.21;99154.06;4430238;32;33518;-64
2022/01/06 03:18:19;;;;;;;5.07;1.30;;;;;;;3.91;60.83;99165.53;4435003;32;33913;-65
2022/01/06 03:20:47;;;;;;;5.40;1.30;;;;;;;3.83;61.31;99161.63;4434999;32;31719;-65
2022/01/06 03:23:15;;;;;;;6.30;1.67;;;;;;;3.86;61.70;99169.50;4436295;32;33258;-64
2022/01/06 03:25:43;;;;;;;3.17;1.08;;;;;;;3.70;61.88;99170.25;4435791;32;34712;-65
2022/01/06 03:28:11;;;;;;;3.85;1.02;;;;;;;3.71;62.06;99159.22;4435359;32;34272;-65
2022/01/06 03:30:39;;;;;;;2.90;1.40;;;;;;;3.63;62.04;99162.97;4432758;32;33992;-65
2022/01/06 03:33:06;;;;;;;4.90;1.42;;;;;;;3.55;62.48;99162.47;4435784;32;33954;-65
2022/01/06 03:35:34;;;;;;;2.65;1.17;;;;;;;3.50;62.38;99176.69;4440646;32;33497;-65
2022/01/06 03:38:01;;;;;;;4.40;1.10;;;;;;;3.64;61.96;99170.75;4438631;32;34694;-64
2022/01/06 03:40:29;;;;;;;4.10;1.20;;;;;;;3.65;62.20;99166.50;4436060;32;33993;-64
2022/01/06 03:42:57;;;;;;;6.78;1.60;;;;;;;3.65;62.51;99172.53;4440284;32;33158;-64
2022/01/06 03:45:24;;;;;;;3.60;1.70;;;;;;;3.89;61.68;99182.50;4432879;32;32978;-65
2022/01/06 03:47:52;;;;;;;2.92;0.93;;;;;;;3.52;62.41;99182.78;4434264;32;34551;-64
2022/01/06 03:50:19;;;;;;;3.65;1.20;;;;;;;3.73;61.70;99186.69;4431347;32;32476;-65
2022/01/06 03:52:47;;;;;;;7.85;1.42;;;;;;;3.52;62.23;99185.34;4441436;32;33099;-65
2022/01/06 03:55:16;;;;;;;3.78;1.40;;;;;;;3.52;62.36;99195.59;4436156;32;33100;-64
2022/01/06 03:57:44;;;;;;;5.72;1.60;;;;;;;3.31;63.02;99184.87;4431640;32;33507;-64
2022/01/06 04:00:16;;;;;;;2.65;0.95;;;;;;;3.53;62.09;99197.34;4432431;32;34824;-64
2022/01/06 04:02:44;;;;;;;3.35;1.42;;;;;;;3.48;62.19;99194.53;4436121;32;34509;-65
2022/01/06 04:05:13;;;;;;;3.67;1.30;;;;;;;3.43;62.76;99187.34;4439081;32;33635;-64
2022/01/06 04:07:41;;;;;;;5.40;1.80;;;;;;;3.32;62.39;99181.53;4434389;32;33872;-64
2022/01/06 04:10:10;;;;;;;5.60;1.40;;;;;;;3.45;62.53;99193.44;4438220;32;33146;-63
2022/01/06 04:12:38;;;;;;;4.95;1.48;;;;;;;3.29;63.09;99182.22;4447276;32;34055;-64
2022/01/06 04:15:10;;;;;;;2.85;0.98;;;;;;;3.74;61.69;99198.69;4434303;32;33797;-65
2022/01/06 04:17:40;;;;;;;4.35;1.98;;;;;;;3.73;61.50;99196.94;4435401;32;33695;-65
2022/01/06 04:20:12;;;;;;;3.83;1.58;;;;;;;3.80;61.80;99187.06;4437071;32;33668;-64
2022/01/06 04:22:40;;;;;;;5.30;2.05;;;;;;;3.96;60.64;99187.22;4437026;32;33133;-65
2022/01/06 04:25:08;;;;;;;4.45;1.62;;;;;;;3.89;61.44;99188.50;4437777;32;33626;-64
2022/01/06 04:27:36;;;;;;;2.53;1.37;;;;;;;3.85;61.08;99190.81;4432961;32;34484;-64
2022/01/06 04:30:05;;;;;;;6.35;1.65;;;;;;;4.18;60.14;99185.94;4439438;32;34414;-64
2022/01/06 04:32:34;;;;;;;4.53;1.20;;;;;;;4.24;59.76;99188.88;4444770;32;33111;-65
2022/01/06 04:35:02;;;;;;;5.22;1.60;;;;;;;4.02;60.18;99192.72;4439108;32;34513;-64
2022/01/06 04:37:30;;;;;;;4.95;1.65;;;;;;;4.24;59.58;99188.88;4425018;32;32113;-65
2022/01/06 04:39:58;;;;;;;4.93;1.23;;;;;;;3.87;60.61;99194.34;4438267;32;34007;-64
2022/01/06 04:42:25;;;;;;;7.03;1.60;;;;;;;4.28;59.37;99208.78;4437631;32;31764;-65
2022/01/06 04:44:53;;;;;;;4.75;1.40;;;;;;;4.29;59.06;99201.16;4436396;32;33803;-64
2022/01/06 04:47:21;;;;;;;4.97;1.27;;;;;;;4.30;59.33;99212.31;4437417;32;33697;-64
2022/01/06 04:49:49;;;;;;;4.80;1.50;;;;;;;4.74;57.85;99216.63;4438919;32;33969;-65
2022/01/06 04:52:17;;;;;;;3.30;1.17;;;;;;;4.90;56.96;99209.00;4441396;32;31886;-65
2022/01/06 04:54:44;;;;;;;4.30;2.08;;;;;;;4.33;59.06;99227.88;4435694;32;33173;-64
2022/01/06 04:57:13;;;;;;;2.90;1.05;;;;;;;4.65;57.85;99226.34;4434674;32;34657;-64
2022/01/06 04:59:40;;;;;;;5.20;1.45;;;;;;;4.47;57.68;99239.84;4438692;32;34007;-65
2022/01/06 05:02:08;;;;;;;2.60;1.05;;;;;;;3.39;61.63;99246.81;4431147;32;33204;-64
2022/01/06 05:04:36;;;;;;;2.67;1.20;;;;;;;4.78;57.83;99244.22;4440205;32;33587;-65
2022/01/06 05:07:04;;;;;;;4.75;1.45;;;;;;;3.47;61.42;99253.31;4437963;32;33984;-65
2022/01/06 05:09:32;;;;;;;3.47;1.10;;;;;;;4.57;58.43;99253.22;4439575;32;33874;-64
2022/01/06 05:12:00;;;;;;;5.72;1.65;;;;;;;4.57;57.97;99258.34;4419202;32;32545;-65
2022/01/06 05:14:27;;;;;;;3.92;1.27;;;;;;;5.00;57.16;99255.72;4440862;32;33911;-65
2022/01/06 05:16:56;;;;;;;3.67;1.30;;;;;;;4.09;59.56;99268.28;4436280;32;35143;-65
2022/01/06 05:19:23;;;;;;;4.55;1.33;;;;;;;5.32;56.36;99263.59;4434562;32;32669;-65
2022/01/06 05:21:52;;;;;;;4.47;1.35;;;;;;;5.18;55.83;99256.81;4438271;32;33452;-65
2022/01/06 05:24:22;;;;;;;3.97;1.10;;;;;;;4.88;57.09;99279.00;4434416;32;33317;-65
2022/01/06 05:26:51;;;;;;;6.00;1.40;;;;;;;5.02;56.82;99269.53;4430466;32;34807;-65
2022/01/06 05:29:18;;;;;;;5.93;1.92;;;;;;;4.30;58.69;99273.84;4440959;32;33943;-65
2022/01/06 05:31:46;;;;;;;3.72;1.12;;;;;;;5.32;56.07;99265.28;4436367;32;33373;-64
2022/01/06 05:34:14;;;;;;;4.25;1.45;;;;;;;5.02;56.57;99272.09;4438196;32;33497;-64
2022/01/06 05:36:42;;;;;;;6.18;1.77;;;;;;;4.93;56.88;99269.91;4438201;32;33808;-64
2022/01/06 05:39:10;;;;;;;4.18;1.30;;;;;;;5.29;56.06;99270.22;4436098;32;33869;-65
2022/01/06 05:41:37;;;;;;;4.07;1.20;;;;;;;5.27;56.07;99271.84;4437913;32;34269;-64
2022/01/06 05:44:05;;;;;;;4.25;1.50;;;;;;;5.87;54.22;99272.59;4442997;32;33952;-64
2022/01/06 05:46:33;;;;;;;4.30;1.30;;;;;;;4.74;56.86;99273.06;4436284;32;33950;-65
2022/01/06 05:49:01;;;;;;;4.10;1.42;;;;;;;4.87;57.61;99280.69;4447647;32;34599;-64
2022/01/06 05:51:29;;;;;;;3.65;1.45;;;;;;;5.42;56.16;99261.56;4442131;32;33168;-64
2022/01/06 05:53:56;;;;;;;5.40;2.12;;;;;;;4.80;58.05;99283.69;4443114;32;33774;-66
2022/01/06 05:56:26;;;;;;;4.87;1.70;;;;;;;4.87;58.29;99280.69;4438692;32;33819;-65
2022/01/06 05:58:54;;;;;;;4.60;1.33;;;;;;;4.97;57.76;99274.41;4442600;32;33844;-65
2022/01/06 06:01:22;;;;;;;4.85;1.65;;;;;;;5.15;57.08;99266.88;4439998;32;33974;-65
2022/01/06 06:03:50;;;;;;;4.55;1.70;;;;;;;5.16;57.38;99276.37;4443925;32;34274;-65
2022/01/06 06:06:17;;;;;;;5.30;1.50;;;;;;;4.76;58.27;99284.31;4437522;32;33879;-65
2022/01/06 06:08:45;;;;;;;4.12;1.60;;;;;;;4.73;59.00;99276.41;4423381;32;33743;-64
2022/01/06 06:11:13;;;;;;;5.95;1.87;;;;;;;4.40;60.36;99291.53;4439027;32;33441;-65
2022/01/06 06:13:40;;;;;;;4.80;1.70;;;;;;;4.57;59.19;99271.19;4442985;32;33913;-65
2022/01/06 06:16:08;;;;;;;6.85;1.60;;;;;;;4.24;60.48;99288.84;4432482;32;34394;-63
2022/01/06 06:18:36;;;;;;;4.43;1.58;;;;;;;4.22;60.88;99275.94;4438183;32;33443;-64
2022/01/06 06:21:06;;;;;;;6.97;2.00;;;;;;;4.16;60.98;99283.25;4437333;32;33584;-63
2022/01/06 06:23:33;;;;;;;5.03;2.10;;;;;;;4.14;61.76;99288.28;4439130;32;33579;-63
2022/01/06 06:26:01;;;;;;;6.72;1.98;;;;;;;4.11;62.46;99293.25;4435220;32;33537;-63
2022/01/06 06:28:29;;;;;;;4.00;1.80;;;;;;;3.84;62.91;99286.38;4439924;32;34052;-63
2022/01/06 06:30:58;;;;;;;5.87;2.08;;;;;;;3.70;63.52;99288.94;4441982;32;34700;-63
2022/01/06 06:33:26;;;;;;;7.37;3.00;;;;;;;3.80;63.27;99294.66;4434492;32;34520;-64
2022/01/06 06:35:54;;;;;;;6.72;1.80;;;;;;;3.46;64.20;99302.75;4429365;32;34012;-63
2022/01/06 06:38:22;;;;;;;6.40;2.70;;;;;;;3.53;64.20;99310.03;4441239;32;34614;-64
2022/01/06 06:40:49;;;;;;;4.25;2.17;;;;;;;3.67;63.95;99324.63;4437276;32;34160;-64
2022/01/06 06:43:17;;;;;;;12.82;2.50;;;;;;;3.67;63.83;99323.72;4441318;32;33861;-64
2022/01/06 06:45:45;;;;;;;6.72;2.60;;;;;;;3.78;63.66;99321.84;4434097;32;33543;-63
2022/01/06 06:48:13;;;;;;;7.57;2.22;;;;;;;3.59;63.79;99341.16;4433983;32;34452;-64
2022/01/06 06:50:41;;;;;;;6.55;2.72;;;;;;;3.60;63.57;99337.81;4438359;32;34245;-63
2022/01/06 06:53:08;;;;;;;8.48;3.53;;;;;;;3.82;63.02;99339.19;4438102;32;33837;-65
2022/01/06 06:55:36;;;;;;;9.00;3.03;;;;;;;4.02;62.41;99335.31;4434331;32;33835;-64
2022/01/06 06:58:04;;;;;;;11.15;3.08;;;;;;;4.06;62.52;99351.00;4441329;32;33693;-63
2022/01/06 07:00:32;;;;;;;10.30;2.80;;;;;;;4.07;62.50;99347.63;4436849;32;33146;-64
2022/01/06 07:03:00;;;;;;;6.90;2.35;;;;;;;4.09;61.85;99353.75;4438494;32;33494;-64
2022/01/06 07:05:29;;;;;;;10.50;1.98;;;;;;;4.19;62.28;99367.13;4441862;32;34456;-63
2022/01/06 07:07:57;;;;;;;5.70;2.85;;;;;;;4.42;61.43;99366.88;4444892;32;33028;-63
2022/01/06 07:10:25;;;;;;;6.75;2.72;;;;;;;4.50;61.13;99375.97;4447890;32;33367;-63
2022/01/06 07:12:53;;;;;;;8.63;2.62;;;;;;;4.08;62.85;99374.16;4440199;32;33680;-63
2022/01/06 07:15:21;;;;;;;6.18;2.50;;;;;;;4.26;62.00;99375.31;4439272;32;34686;-63
2022/01/06 07:17:49;;;;;;;7.12;2.45;;;;;;;4.20;62.48;99374.06;4439962;32;34817;-63
2022/01/06 07:20:16;;;;;;;8.13;2.85;;;;;;;4.18;63.01;99388.47;4444078;32;33532;-65
2022/01/06 07:22:44;;;;;;;10.23;2.65;;;;;;;3.91;63.78;99385.91;4440302;32;33953;-63
2022/01/06 07:25:11;;;;;;;6.47;2.10;;;;;;;4.10;63.05;99393.97;4440639;32;33600;-65
2022/01/06 07:27:39;;;;;;;5.85;2.30;;;;;;;4.50;61.70;99401.63;4444328;32;33872;-64
2022/01/06 07:30:07;;;;;;;7.22;1.87;;;;;;;3.68;64.36;99413.47;4444511;32;33561;-64
2022/01/06 07:32:46;;;;;;;6.75;2.30;;;;;;;4.01;63.80;99411.31;4423170;32;34481;-64
2022/01/06 07:35:15;;;;;;;7.82;2.33;;;;;;;4.12;63.62;99407.78;4451799;32;34599;-63
2022/01/06 07:37:43;;;;;;;9.77;3.17;;;;;;;3.84;64.78;99412.78;4426454;32;33509;-63
2022/01/06 07:40:16;;;;;;;7.30;2.75;;;;;;;3.47;65.06;99406.94;4438986;32;33400;-63
2022/01/06 07:42:44;;;;;;;7.70;2.70;;;;;;;3.53;65.27;99415.03;4431489;32;33988;-63
2022/01/06 07:45:12;;;;;;;12.80;2.45;;;;;;;3.77;65.47;99432.78;4432042;32;33459;-64
2022/01/06 07:47:55;;;;;;;7.87;2.47;;;;;;;4.24;63.33;99432.41;4436469;32;33641;-64
2022/01/06 07:50:26;;;;;;;7.25;2.87;;;;;;;3.61;65.18;99434.38;4433764;32;32821;-64
2022/01/06 07:52:54;;;;;;;6.45;2.50;;;;;;;3.65;65.71;99443.13;4435243;32;32972;-65
2022/01/06 07:55:22;;;;;;;6.68;2.72;;;;;;;4.21;63.53;99447.59;4441458;32;32384;-65
2022/01/06 07:57:50;;;;;;;8.73;2.40;;;;;;;4.40;63.03;99455.66;4445424;32;33941;-64
2022/01/06 08:00:19;;;;;;;5.50;2.50;;;;;;;4.43;62.87;99450.75;4440742;32;33393;-65
2022/01/06 08:02:47;;;;;;;5.00;2.00;;;;;;;4.06;64.24;99450.97;4437180;32;33676;-64
2022/01/06 08:05:15;;;;;;;7.53;2.85;;;;;;;4.41;62.97;99451.44;4433366;32;33306;-63
2022/01/06 08:07:43;;;;;;;4.47;1.90;;;;;;;4.58;62.69;99467.87;4442325;32;34293;-63
2022/01/06 08:10:11;;;;;;;5.37;1.95;;;;;;;4.65;61.92;99458.09;4433648;32;32815;-63
2022/01/06 08:12:40;;;;;;;4.60;1.73;;;;;;;4.41;62.74;99465.16;4436101;32;34319;-63
2022/01/06 08:15:09;;;;;;;7.93;1.73;;;;;;;4.68;61.64;99470.25;4433855;32;34720;-63
2022/01/06 08:17:37;;;;;;;4.53;1.87;;;;;;;4.88;61.03;99474.03;4421497;32;33840;-64
2022/01/06 08:20:07;;;;;;;6.35;1.77;;;;;;;4.75;61.37;99469.81;4432354;32;32702;-64
2022/01/06 08:22:35;;;;;;;3.83;1.65;;;;;;;5.02;60.68;99480.03;4441700;32;33339;-64
2022/01/06 08:25:05;;;;;;;6.53;1.70;;;;;;;4.85;61.11;99476.44;4441906;32;33947;-64
2022/01/06 08:27:32;;;;;;;5.93;1.77;;;;;;;4.64;61.32;99470.84;4440100;32;33892;-64
2022/01/06 08:30:00;;;;;;;6.15;1.70;;;;;;;5.04;60.50;99481.00;4442669;32;32941;-64
2022/01/06 08:32:35;;;;;;;3.75;1.58;;;;;;;4.84;60.73;99485.78;4442812;32;33768;-64
2022/01/06 08:35:03;;;;;;;6.13;2.10;;;;;;;4.58;61.66;99486.75;4443497;32;34587;-65
2022/01/06 08:37:31;;;;;;;6.47;2.62;;;;;;;5.24;60.15;99506.22;4442497;32;33800;-64
2022/01/06 08:39:59;;;;;;;5.22;2.17;;;;;;;5.04;60.57;99506.66;4441832;32;33252;-64
2022/01/06 08:42:27;;;;;;;22.30;10.02;;;;;;;5.44;58.90;99511.69;4439861;32;32608;-64
2022/01/06 08:44:55;;;;;;;15.65;5.65;;;;;;;5.59;58.77;99522.00;4427356;32;32353;-65
2022/01/06 08:47:22;;;;;;;16.25;7.50;;;;;;;5.67;58.66;99525.91;4438750;32;33736;-63
2022/01/06 08:49:50;;;;;;;9.10;3.95;;;;;;;5.59;59.27;99528.03;4440536;32;33187;-64
2022/01/06 08:52:26;;;;;;;5.70;2.72;;;;;;;5.09;60.89;99525.81;4440532;32;33619;-64
2022/01/06 08:54:54;;;;;;;12.37;4.60;;;;;;;5.52;59.81;99533.56;4435137;32;34399;-64
2022/01/06 08:57:23;;;;;;;16.20;5.75;;;;;;;5.19;59.88;99525.59;4444371;32;33878;-64
2022/01/06 08:59:51;;;;;;;33.50;13.93;;;;;;;5.15;60.52;99533.91;4444569;32;34265;-64
2022/01/06 09:02:19;;;;;;;15.93;5.95;;;;;;;5.38;59.05;99532.75;4431875;32;33051;-65
2022/01/06 09:04:47;;;;;;;7.62;2.28;;;;;;;5.57;58.88;99539.88;4441076;32;33660;-64
2022/01/06 09:07:16;;;;;;;12.02;4.90;;;;;;;5.67;58.27;99534.50;4434753;32;33342;-64
2022/01/06 09:09:43;;;;;;;15.80;7.05;;;;;;;5.77;57.72;99532.47;4442602;32;33388;-65
2022/01/06 09:12:17;;;;;;;24.00;10.63;;;;;;;5.52;58.82;99536.16;4433039;32;33496;-63
2022/01/06 09:14:45;;;;;;;6.30;2.30;;;;;;;5.22;59.41;99533.50;4437468;32;33805;-64
2022/01/06 09:17:14;;;;;;;13.27;5.57;;;;;;;4.96;61.12;99538.69;4433908;32;34244;-65
2022/01/06 09:19:42;;;;;;;6.05;2.95;;;;;;;5.22;59.96;99532.62;4437909;32;33443;-64
2022/01/06 09:22:11;;;;;;;3.85;1.80;;;;;;;5.21;59.66;99534.28;4441167;32;33857;-65
2022/01/06 09:24:38;;;;;;;9.38;4.30;;;;;;;5.13;59.68;99527.78;4437452;32;33563;-64
2022/01/06 09:27:06;;;;;;;6.40;3.87;;;;;;;5.15;60.16;99526.19;4436541;32;34019;-65
2022/01/06 09:29:34;;;;;;;7.03;3.35;;;;;;;5.15;60.23;99541.59;4440091;32;34506;-66
2022/01/06 09:32:02;;;;;;;10.35;5.78;;;;;;;5.24;59.88;99534.47;4445567;32;33337;-65
2022/01/06 09:34:30;;;;;;;5.28;2.53;;;;;;;5.41;59.09;99543.22;4442631;32;33508;-66
2022/01/06 09:36:58;;;;;;;6.55;2.97;;;;;;;5.33;59.84;99541.84;4436419;32;34029;-65
2022/01/06 09:39:25;;;;;;;12.27;7.30;;;;;;;5.35;59.41;99540.28;4447037;32;34256;-66
2022/01/06 09:41:53;;;;;;;13.90;6.45;;;;;;;5.44;59.08;99548.53;4441378;32;33886;-65
2022/01/06 09:44:21;;;;;;;8.20;3.25;;;;;;;5.48;58.90;99549.59;4429396;32;33781;-64
2022/01/06 09:47:01;;;;;;;13.23;5.80;;;;;;;5.16;59.90;99547.62;4422482;32;33958;-65
2022/01/06 09:49:31;;;;;;;9.00;3.08;;;;;;;5.23;59.45;99547.22;4423779;32;34329;-64
2022/01/06 09:51:59;;;;;;;9.93;3.65;;;;;;;4.99;60.52;99562.00;4432024;32;34466;-65
2022/01/06 09:54:27;;;;;;;11.55;5.35;;;;;;;5.38;59.47;99557.56;4431992;32;33943;-65
2022/01/06 09:56:55;;;;;;;7.87;1.62;;;;;;;5.28;59.57;99551.84;4429709;32;32288;-65
2022/01/06 09:59:24;;;;;;;5.75;3.10;;;;;;;4.81;61.19;99548.88;4433684;32;33925;-65
2022/01/06 10:01:53;;;;;;;5.75;3.05;;;;;;;5.44;59.83;99552.78;4435182;32;33218;-64
2022/01/06 10:04:28;;;;;;;17.35;7.82;;;;;;;5.90;58.27;99551.28;4433992;32;33903;-64
2022/01/06 10:07:04;;;;;;;7.60;3.53;;;;;;;6.01;57.71;99567.41;4441147;32;33681;-66
2022/01/06 10:09:34;;;;;;;5.35;2.30;;;;;;;5.88;58.29;99572.56;4441249;32;33168;-67
2022/01/06 10:12:06;;;;;;;8.05;2.80;;;;;;;6.29;56.80;99566.41;4450323;32;33861;-67
2022/01/06 10:14:43;;;;;;;7.43;2.22;;;;;;;6.30;57.37;99573.34;4443450;32;32886;-66
2022/01/06 10:17:14;;;;;;;4.62;1.58;;;;;;;5.59;59.84;99564.00;4443111;32;33882;-67
2022/01/06 10:19:43;;;;;;;7.93;2.10;;;;;;;5.86;58.39;99569.03;4436002;32;33749;-66
2022/01/06 10:22:19;;;;;;;4.37;1.80;;;;;;;5.20;60.27;99568.47;4437960;32;33747;-66
2022/01/06 10:24:49;;;;;;;4.75;2.22;;;;;;;5.85;58.73;99568.16;4459693;32;34526;-67
2022/01/06 10:27:19;;;;;;;4.82;1.58;;;;;;;6.14;58.31;99570.66;4433927;32;34656;-66
2022/01/06 10:29:51;;;;;;;4.12;1.73;;;;;;;5.31;59.61;99564.88;4432583;32;33414;-67
2022/01/06 10:32:21;;;;;;;4.47;1.27;;;;;;;5.13;60.20;99579.13;4434073;32;33304;-67
2022/01/06 10:34:52;;;;;;;5.55;2.12;;;;;;;5.63;58.38;99565.94;4420152;32;33117;-66
2022/01/06 10:37:24;;;;;;;3.70;1.10;;;;;;;5.95;57.32;99576.38;4439726;32;34463;-67
2022/01/06 10:39:57;;;;;;;6.85;1.52;;;;;;;5.59;58.78;99589.69;4430393;32;34553;-66
2022/01/06 10:42:27;;;;;;;3.65;1.62;;;;;;;5.46;59.59;99582.03;4425076;32;33835;-67
2022/01/06 10:44:59;;;;;;;4.53;1.55;;;;;;;5.81;58.29;99596.13;4433989;32;33076;-67
2022/01/06 10:47:43;;;;;;;5.28;2.28;;;;;;;5.69;58.57;99584.31;4431412;32;33800;-66
2022/01/06 10:50:16;;;;;;;5.22;1.77;;;;;;;5.88;58.57;99593.12;4437819;32;31597;-67
2022/01/06 10:53:10;;;;;;;8.40;1.73;;;;;;;5.90;58.33;99599.25;4434750;32;33992;-67
2022/01/06 10:55:43;;;;;;;2.87;1.15;;;;;;;5.45;60.12;99585.41;4436252;32;34424;-67
2022/01/06 10:58:24;;;;;;;5.32;2.12;;;;;;;5.83;58.61;99591.97;4434594;32;33684;-67
2022/01/06 11:01:00;;;;;;;6.43;1.73;;;;;;;6.28;57.09;99600.69;4423089;32;33244;-68
2022/01/06 11:03:33;;;;;;;4.25;1.67;;;;;;;5.96;57.29;99586.78;4433463;32;32120;-68
2022/01/06 11:06:03;;;;;;;5.43;1.77;;;;;;;5.94;57.37;99596.06;4435244;32;34591;-67
2022/01/06 11:08:33;;;;;;;5.20;1.67;;;;;;;5.99;57.88;99604.97;4419734;32;33976;-67
2022/01/06 11:11:15;;;;;;;3.33;2.05;;;;;;;5.95;57.31;99609.78;4434765;32;34034;-67
2022/01/06 11:13:45;;;;;;;6.28;2.58;;;;;;;6.06;57.46;99604.53;4435109;32;34290;-67
2022/01/06 11:16:16;;;;;;;6.97;1.90;;;;;;;6.03;58.10;99614.66;4437424;32;35840;-68
2022/01/06 11:19:03;;;;;;;7.70;2.80;;;;;;;6.02;57.75;99612.84;4433908;32;33156;-67
2022/01/06 11:21:35;;;;;;;4.62;1.87;;;;;;;6.15;57.34;99618.75;4437097;32;32130;-67
2022/01/06 11:24:20;;;;;;;6.95;2.80;;;;;;;5.95;58.68;99623.59;4436333;32;33705;-67
2022/01/06 11:27:09;;;;;;;5.30;1.98;;;;;;;5.90;59.35;99617.25;4434982;32;33988;-67
2022/01/06 11:29:40;;;;;;;5.65;2.03;;;;;;;5.38;60.73;99624.34;4435612;32;33379;-64
2022/01/06 11:32:19;;;;;;;3.85;1.40;;;;;;;5.37;60.27;99607.13;4435540;32;33967;-64
2022/01/06 11:34:51;;;;;;;7.32;2.60;;;;;;;5.39;60.73;99620.97;4436345;32;33845;-64
2022/01/06 11:37:19;;;;;;;5.25;2.28;;;;;;;5.87;59.47;99622.19;4427702;32;33960;-63
2022/01/06 11:39:47;;;;;;;6.97;2.65;;;;;;;5.99;58.03;99622.97;4435569;32;33700;-64
2022/01/06 11:42:20;;;;;;;7.18;1.65;;;;;;;5.66;59.42;99622.69;4433331;32;34009;-64
2022/01/06 11:44:58;;;;;;;4.43;2.12;;;;;;;5.57;60.25;99622.09;4450866;32;33616;-64
2022/01/06 11:47:30;;;;;;;3.35;1.33;;;;;;;5.95;58.56;99632.94;4434429;32;32361;-64
2022/01/06 11:50:24;;;;;;;5.97;2.25;;;;;;;5.69;59.32;99622.84;4434396;32;33745;-65
2022/01/06 11:52:56;;;;;;;4.12;2.08;;;;;;;5.76;59.23;99626.69;4450146;32;33249;-64
2022/01/06 11:55:33;;;;;;;4.60;1.75;;;;;;;5.70;59.16;99619.50;4427076;32;33829;-65
2022/01/06 11:58:17;;;;;;;6.93;2.67;;;;;;;5.82;57.68;99623.62;4433086;32;33924;-65
2022/01/06 12:00:56;;;;;;;5.97;1.85;;;;;;;5.81;57.54;99621.81;4434283;32;33644;-64
2022/01/06 12:03:39;;;;;;;3.50;1.42;;;;;;;5.98;57.75;99617.75;4428644;32;33269;-64